sensor_id;sensor_type;location;lat;lon;timestamp;temperature;humidity
17208;DHT22;8720;48.488;9.202;2024-02-16T00:01:33;12.00;49.20
17208;DHT22;8720;48.488;9.202;2024-02-16T00:04:03;12.00;49.30
17208;DHT22;8720;48.488;9.202;2024-02-16T00:06:30;12.00;49.50
17208;DHT22;8720;48.488;9.202;2024-02-16T00:08:59;12.00;49.50
17208;DHT22;8720;48.488;9.202;2024-02-16T00:11:26;11.90;49.60
17208;DHT22;8720;48.488;9.202;2024-02-16T00:13:54;11.90;50.20
17208;DHT22;8720;48.488;9.202;2024-02-16T00:16:22;11.90;49.60
17208;DHT22;8720;48.488;9.202;2024-02-16T00:18:49;11.90;49.70
17208;DHT22;8720;48.488;9.202;2024-02-16T00:21:16;11.90;49.80
17208;DHT22;8720;48.488;9.202;2024-02-16T00:23:44;11.80;50.40
17208;DHT22;8720;48.488;9.202;2024-02-16T00:26:13;11.80;50.40
17208;DHT22;8720;48.488;9.202;2024-02-16T00:28:41;11.80;49.90
17208;DHT22;8720;48.488;9.202;2024-02-16T00:31:09;11.80;49.80
17208;DHT22;8720;48.488;9.202;2024-02-16T00:33:39;11.80;49.90
17208;DHT22;8720;48.488;9.202;2024-02-16T00:36:07;11.80;50.00
17208;DHT22;8720;48.488;9.202;2024-02-16T00:38:35;11.70;50.00
17208;DHT22;8720;48.488;9.202;2024-02-16T00:41:03;11.70;50.00
17208;DHT22;8720;48.488;9.202;2024-02-16T00:43:32;11.70;50.10
17208;DHT22;8720;48.488;9.202;2024-02-16T00:45:59;11.70;50.30
17208;DHT22;8720;48.488;9.202;2024-02-16T00:48:27;11.70;50.30
17208;DHT22;8720;48.488;9.202;2024-02-16T00:50:54;11.70;50.30
17208;DHT22;8720;48.488;9.202;2024-02-16T00:53:21;11.70;50.40
17208;DHT22;8720;48.488;9.202;2024-02-16T00:55:50;11.70;50.50
17208;DHT22;8720;48.488;9.202;2024-02-16T00:58:17;11.80;50.60
17208;DHT22;8720;48.488;9.202;2024-02-16T01:00:46;11.80;50.70
17208;DHT22;8720;48.488;9.202;2024-02-16T01:03:14;11.80;50.90
17208;DHT22;8720;48.488;9.202;2024-02-16T01:05:42;11.80;50.80
17208;DHT22;8720;48.488;9.202;2024-02-16T01:08:09;11.80;50.70
17208;DHT22;8720;48.488;9.202;2024-02-16T01:10:36;11.90;50.90
17208;DHT22;8720;48.488;9.202;2024-02-16T01:13:04;11.90;50.90
17208;DHT22;8720;48.488;9.202;2024-02-16T01:15:31;12.00;51.00
17208;DHT22;8720;48.488;9.202;2024-02-16T01:18:00;12.00;51.00
17208;DHT22;8720;48.488;9.202;2024-02-16T01:20:27;12.00;51.10
17208;DHT22;8720;48.488;9.202;2024-02-16T01:22:56;12.00;51.10
17208;DHT22;8720;48.488;9.202;2024-02-16T01:25:24;12.00;51.10
17208;DHT22;8720;48.488;9.202;2024-02-16T01:27:51;12.00;51.10
17208;DHT22;8720;48.488;9.202;2024-02-16T01:30:19;12.00;51.20
17208;DHT22;8720;48.488;9.202;2024-02-16T01:32:47;12.00;51.30
17208;DHT22;8720;48.488;9.202;2024-02-16T01:35:16;12.00;51.30
17208;DHT22;8720;48.488;9.202;2024-02-16T01:37:43;12.00;51.40
17208;DHT22;8720;48.488;9.202;2024-02-16T01:40:11;12.00;51.30
17208;DHT22;8720;48.488;9.202;2024-02-16T01:42:40;12.00;51.40
17208;DHT22;8720;48.488;9.202;2024-02-16T01:45:08;11.90;51.30
17208;DHT22;8720;48.488;9.202;2024-02-16T01:47:37;11.90;51.40
17208;DHT22;8720;48.488;9.202;2024-02-16T01:50:06;11.90;52.00
17208;DHT22;8720;48.488;9.202;2024-02-16T01:52:35;11.90;51.50
17208;DHT22;8720;48.488;9.202;2024-02-16T01:55:04;11.90;51.60
17208;DHT22;8720;48.488;9.202;2024-02-16T01:57:34;11.90;51.60
17208;DHT22;8720;48.488;9.202;2024-02-16T02:00:03;11.90;51.70
17208;DHT22;8720;48.488;9.202;2024-02-16T02:02:34;11.90;51.70
17208;DHT22;8720;48.488;9.202;2024-02-16T02:05:02;11.90;52.20
17208;DHT22;8720;48.488;9.202;2024-02-16T02:07:30;11.90;51.70
17208;DHT22;8720;48.488;9.202;2024-02-16T02:09:59;11.90;51.80
17208;DHT22;8720;48.488;9.202;2024-02-16T02:12:26;11.90;51.80
17208;DHT22;8720;48.488;9.202;2024-02-16T02:14:54;11.90;51.70
17208;DHT22;8720;48.488;9.202;2024-02-16T02:17:21;11.90;51.70
17208;DHT22;8720;48.488;9.202;2024-02-16T02:19:49;11.90;51.70
17208;DHT22;8720;48.488;9.202;2024-02-16T02:22:18;11.90;51.60
17208;DHT22;8720;48.488;9.202;2024-02-16T02:24:46;11.90;51.70
17208;DHT22;8720;48.488;9.202;2024-02-16T02:27:15;11.90;51.60
17208;DHT22;8720;48.488;9.202;2024-02-16T02:29:43;11.90;51.50
17208;DHT22;8720;48.488;9.202;2024-02-16T02:32:10;11.90;51.50
17208;DHT22;8720;48.488;9.202;2024-02-16T02:34:38;11.90;51.60
17208;DHT22;8720;48.488;9.202;2024-02-16T02:37:06;11.90;51.70
17208;DHT22;8720;48.488;9.202;2024-02-16T02:39:35;11.90;51.60
17208;DHT22;8720;48.488;9.202;2024-02-16T02:42:02;11.90;51.60
17208;DHT22;8720;48.488;9.202;2024-02-16T02:44:30;11.90;51.60
17208;DHT22;8720;48.488;9.202;2024-02-16T02:46:58;11.90;51.80
17208;DHT22;8720;48.488;9.202;2024-02-16T02:49:26;11.90;51.70
17208;DHT22;8720;48.488;9.202;2024-02-16T02:51:53;11.90;51.70
17208;DHT22;8720;48.488;9.202;2024-02-16T02:54:21;11.90;51.70
17208;DHT22;8720;48.488;9.202;2024-02-16T02:56:49;11.90;51.80
17208;DHT22;8720;48.488;9.202;2024-02-16T02:59:17;11.90;51.80
17208;DHT22;8720;48.488;9.202;2024-02-16T03:04:12;11.90;51.70
17208;DHT22;8720;48.488;9.202;2024-02-16T03:06:39;11.90;51.80
17208;DHT22;8720;48.488;9.202;2024-02-16T03:09:07;11.90;51.80
17208;DHT22;8720;48.488;9.202;2024-02-16T03:11:34;11.90;51.80
17208;DHT22;8720;48.488;9.202;2024-02-16T03:14:04;11.90;51.80
17208;DHT22;8720;48.488;9.202;2024-02-16T03:16:32;11.90;51.90
17208;DHT22;8720;48.488;9.202;2024-02-16T03:19:00;11.90;51.90
17208;DHT22;8720;48.488;9.202;2024-02-16T03:21:27;11.90;51.90
17208;DHT22;8720;48.488;9.202;2024-02-16T03:23:54;11.90;51.90
17208;DHT22;8720;48.488;9.202;2024-02-16T03:26:22;11.90;52.00
17208;DHT22;8720;48.488;9.202;2024-02-16T03:28:49;11.90;52.00
17208;DHT22;8720;48.488;9.202;2024-02-16T03:31:19;12.00;52.10
17208;DHT22;8720;48.488;9.202;2024-02-16T03:33:48;12.00;52.20
17208;DHT22;8720;48.488;9.202;2024-02-16T03:36:16;12.00;52.80
17208;DHT22;8720;48.488;9.202;2024-02-16T03:38:44;12.00;52.10
17208;DHT22;8720;48.488;9.202;2024-02-16T03:41:13;12.00;52.00
17208;DHT22;8720;48.488;9.202;2024-02-16T03:43:42;12.00;51.90
17208;DHT22;8720;48.488;9.202;2024-02-16T03:46:09;12.10;51.90
17208;DHT22;8720;48.488;9.202;2024-02-16T03:48:38;12.10;51.80
17208;DHT22;8720;48.488;9.202;2024-02-16T03:51:06;12.10;51.80
17208;DHT22;8720;48.488;9.202;2024-02-16T03:53:34;12.10;51.80
17208;DHT22;8720;48.488;9.202;2024-02-16T03:56:01;12.10;51.70
17208;DHT22;8720;48.488;9.202;2024-02-16T03:58:29;12.10;51.60
17208;DHT22;8720;48.488;9.202;2024-02-16T04:00:58;12.10;51.70
17208;DHT22;8720;48.488;9.202;2024-02-16T04:03:25;12.10;51.70
17208;DHT22;8720;48.488;9.202;2024-02-16T04:05:54;12.10;51.80
17208;DHT22;8720;48.488;9.202;2024-02-16T04:08:21;12.10;51.90
17208;DHT22;8720;48.488;9.202;2024-02-16T04:10:49;12.10;51.80
17208;DHT22;8720;48.488;9.202;2024-02-16T04:13:16;12.10;51.80
17208;DHT22;8720;48.488;9.202;2024-02-16T04:15:43;12.00;51.80
17208;DHT22;8720;48.488;9.202;2024-02-16T04:18:11;12.00;51.80
17208;DHT22;8720;48.488;9.202;2024-02-16T04:20:39;12.00;51.80
17208;DHT22;8720;48.488;9.202;2024-02-16T04:23:11;12.00;51.90
17208;DHT22;8720;48.488;9.202;2024-02-16T04:25:38;12.00;52.00
17208;DHT22;8720;48.488;9.202;2024-02-16T04:28:05;11.90;51.80
17208;DHT22;8720;48.488;9.202;2024-02-16T04:30:32;11.90;51.90
17208;DHT22;8720;48.488;9.202;2024-02-16T04:33:00;11.90;51.90
17208;DHT22;8720;48.488;9.202;2024-02-16T04:35:30;11.80;51.90
17208;DHT22;8720;48.488;9.202;2024-02-16T04:37:57;11.80;52.00
17208;DHT22;8720;48.488;9.202;2024-02-16T04:40:26;11.80;52.10
17208;DHT22;8720;48.488;9.202;2024-02-16T04:42:53;11.80;52.10
17208;DHT22;8720;48.488;9.202;2024-02-16T04:45:21;11.70;52.10
17208;DHT22;8720;48.488;9.202;2024-02-16T04:47:48;11.70;52.80
17208;DHT22;8720;48.488;9.202;2024-02-16T04:50:15;11.70;52.30
17208;DHT22;8720;48.488;9.202;2024-02-16T04:52:43;11.70;52.30
17208;DHT22;8720;48.488;9.202;2024-02-16T04:55:10;11.60;52.20
17208;DHT22;8720;48.488;9.202;2024-02-16T04:57:39;11.60;52.10
17208;DHT22;8720;48.488;9.202;2024-02-16T05:00:07;11.60;52.30
17208;DHT22;8720;48.488;9.202;2024-02-16T05:02:36;11.60;52.30
17208;DHT22;8720;48.488;9.202;2024-02-16T05:05:04;11.60;52.20
17208;DHT22;8720;48.488;9.202;2024-02-16T05:07:31;11.60;52.30
17208;DHT22;8720;48.488;9.202;2024-02-16T05:09:58;11.60;52.30
17208;DHT22;8720;48.488;9.202;2024-02-16T05:12:26;11.60;52.30
17208;DHT22;8720;48.488;9.202;2024-02-16T05:14:56;11.70;52.30
17208;DHT22;8720;48.488;9.202;2024-02-16T05:17:23;11.70;52.40
17208;DHT22;8720;48.488;9.202;2024-02-16T05:19:51;11.70;52.30
17208;DHT22;8720;48.488;9.202;2024-02-16T05:22:19;11.70;52.30
17208;DHT22;8720;48.488;9.202;2024-02-16T05:24:48;11.70;52.30
17208;DHT22;8720;48.488;9.202;2024-02-16T05:27:15;11.70;52.30
17208;DHT22;8720;48.488;9.202;2024-02-16T05:29:43;11.70;52.20
17208;DHT22;8720;48.488;9.202;2024-02-16T05:32:13;11.80;52.30
17208;DHT22;8720;48.488;9.202;2024-02-16T05:34:40;11.80;52.30
17208;DHT22;8720;48.488;9.202;2024-02-16T05:37:08;11.80;52.30
17208;DHT22;8720;48.488;9.202;2024-02-16T05:39:36;11.80;52.20
17208;DHT22;8720;48.488;9.202;2024-02-16T05:42:19;11.80;52.20
17208;DHT22;8720;48.488;9.202;2024-02-16T05:44:48;11.80;52.30
17208;DHT22;8720;48.488;9.202;2024-02-16T05:47:18;11.80;52.20
17208;DHT22;8720;48.488;9.202;2024-02-16T05:49:46;11.80;52.30
17208;DHT22;8720;48.488;9.202;2024-02-16T05:52:13;11.80;52.20
17208;DHT22;8720;48.488;9.202;2024-02-16T05:54:49;11.80;52.20
17208;DHT22;8720;48.488;9.202;2024-02-16T05:57:16;11.80;52.10
17208;DHT22;8720;48.488;9.202;2024-02-16T05:59:44;11.80;52.10
17208;DHT22;8720;48.488;9.202;2024-02-16T06:02:12;11.80;52.10
17208;DHT22;8720;48.488;9.202;2024-02-16T06:04:41;11.80;52.10
17208;DHT22;8720;48.488;9.202;2024-02-16T06:07:08;11.80;52.20
17208;DHT22;8720;48.488;9.202;2024-02-16T06:09:36;11.70;52.10
17208;DHT22;8720;48.488;9.202;2024-02-16T06:12:05;11.70;52.10
17208;DHT22;8720;48.488;9.202;2024-02-16T06:14:33;11.70;52.20
17208;DHT22;8720;48.488;9.202;2024-02-16T06:17:02;11.70;52.20
17208;DHT22;8720;48.488;9.202;2024-02-16T06:19:30;11.60;52.00
17208;DHT22;8720;48.488;9.202;2024-02-16T06:21:59;11.60;51.90
17208;DHT22;8720;48.488;9.202;2024-02-16T06:24:26;11.60;51.90
17208;DHT22;8720;48.488;9.202;2024-02-16T06:26:54;11.60;51.90
17208;DHT22;8720;48.488;9.202;2024-02-16T06:29:21;11.60;51.80
17208;DHT22;8720;48.488;9.202;2024-02-16T06:31:49;11.60;51.70
17208;DHT22;8720;48.488;9.202;2024-02-16T06:34:18;11.60;51.70
17208;DHT22;8720;48.488;9.202;2024-02-16T06:36:46;11.60;51.80
17208;DHT22;8720;48.488;9.202;2024-02-16T06:39:15;11.70;51.80
17208;DHT22;8720;48.488;9.202;2024-02-16T06:41:44;11.70;51.80
17208;DHT22;8720;48.488;9.202;2024-02-16T06:44:12;11.70;51.70
17208;DHT22;8720;48.488;9.202;2024-02-16T06:46:40;11.60;52.30
17208;DHT22;8720;48.488;9.202;2024-02-16T06:49:07;11.60;52.30
17208;DHT22;8720;48.488;9.202;2024-02-16T06:51:35;11.70;52.30
17208;DHT22;8720;48.488;9.202;2024-02-16T06:54:03;11.70;52.10
17208;DHT22;8720;48.488;9.202;2024-02-16T06:56:32;11.70;52.10
17208;DHT22;8720;48.488;9.202;2024-02-16T06:58:59;11.70;52.10
17208;DHT22;8720;48.488;9.202;2024-02-16T07:01:26;11.80;52.10
17208;DHT22;8720;48.488;9.202;2024-02-16T07:03:57;11.70;52.00
17208;DHT22;8720;48.488;9.202;2024-02-16T07:06:25;11.80;52.10
17208;DHT22;8720;48.488;9.202;2024-02-16T07:08:52;11.70;52.10
17208;DHT22;8720;48.488;9.202;2024-02-16T07:11:20;11.70;52.10
17208;DHT22;8720;48.488;9.202;2024-02-16T07:13:49;11.70;52.10
17208;DHT22;8720;48.488;9.202;2024-02-16T07:16:16;11.70;52.10
17208;DHT22;8720;48.488;9.202;2024-02-16T07:18:44;11.70;52.10
17208;DHT22;8720;48.488;9.202;2024-02-16T07:21:11;11.70;52.20
17208;DHT22;8720;48.488;9.202;2024-02-16T07:23:39;11.70;52.10
17208;DHT22;8720;48.488;9.202;2024-02-16T07:26:07;11.70;52.10
17208;DHT22;8720;48.488;9.202;2024-02-16T07:28:34;11.70;51.90
17208;DHT22;8720;48.488;9.202;2024-02-16T07:31:03;11.70;51.80
17208;DHT22;8720;48.488;9.202;2024-02-16T07:33:31;11.70;51.70
17208;DHT22;8720;48.488;9.202;2024-02-16T07:35:58;11.70;51.70
17208;DHT22;8720;48.488;9.202;2024-02-16T07:38:26;11.80;51.60
17208;DHT22;8720;48.488;9.202;2024-02-16T07:40:54;11.80;51.60
17208;DHT22;8720;48.488;9.202;2024-02-16T07:43:22;11.80;51.70
17208;DHT22;8720;48.488;9.202;2024-02-16T07:45:50;11.80;51.80
17208;DHT22;8720;48.488;9.202;2024-02-16T07:48:21;11.90;51.90
17208;DHT22;8720;48.488;9.202;2024-02-16T07:50:48;11.90;52.00
17208;DHT22;8720;48.488;9.202;2024-02-16T07:53:16;11.90;52.00
17208;DHT22;8720;48.488;9.202;2024-02-16T07:55:44;11.90;52.10
17208;DHT22;8720;48.488;9.202;2024-02-16T07:58:12;11.80;52.00
17208;DHT22;8720;48.488;9.202;2024-02-16T08:00:40;11.80;52.00
17208;DHT22;8720;48.488;9.202;2024-02-16T08:03:07;11.80;52.00
17208;DHT22;8720;48.488;9.202;2024-02-16T08:05:36;11.80;52.00
17208;DHT22;8720;48.488;9.202;2024-02-16T08:08:04;11.80;52.10
17208;DHT22;8720;48.488;9.202;2024-02-16T08:10:32;11.80;52.10
17208;DHT22;8720;48.488;9.202;2024-02-16T08:13:01;11.70;52.10
17208;DHT22;8720;48.488;9.202;2024-02-16T08:15:28;11.70;52.10
17208;DHT22;8720;48.488;9.202;2024-02-16T08:17:57;11.70;52.10
17208;DHT22;8720;48.488;9.202;2024-02-16T08:20:24;11.70;52.30
17208;DHT22;8720;48.488;9.202;2024-02-16T08:22:53;11.70;52.30
17208;DHT22;8720;48.488;9.202;2024-02-16T08:25:21;11.70;52.40
17208;DHT22;8720;48.488;9.202;2024-02-16T08:27:48;11.70;52.50
17208;DHT22;8720;48.488;9.202;2024-02-16T08:30:16;11.70;52.60
17208;DHT22;8720;48.488;9.202;2024-02-16T08:32:44;11.80;52.80
17208;DHT22;8720;48.488;9.202;2024-02-16T08:35:12;11.80;53.00
17208;DHT22;8720;48.488;9.202;2024-02-16T08:37:40;11.80;53.60
17208;DHT22;8720;48.488;9.202;2024-02-16T08:40:12;11.90;53.50
17208;DHT22;8720;48.488;9.202;2024-02-16T08:42:40;12.10;53.50
17208;DHT22;8720;48.488;9.202;2024-02-16T08:45:08;12.20;53.20
17208;DHT22;8720;48.488;9.202;2024-02-16T08:47:36;12.40;53.00
17208;DHT22;8720;48.488;9.202;2024-02-16T08:50:05;12.60;52.90
17208;DHT22;8720;48.488;9.202;2024-02-16T08:52:33;12.70;52.60
17208;DHT22;8720;48.488;9.202;2024-02-16T08:55:00;12.90;52.60
17208;DHT22;8720;48.488;9.202;2024-02-16T08:57:31;13.10;52.50
17208;DHT22;8720;48.488;9.202;2024-02-16T08:59:59;13.30;52.00
17208;DHT22;8720;48.488;9.202;2024-02-16T09:02:27;13.50;51.90
17208;DHT22;8720;48.488;9.202;2024-02-16T09:04:54;13.70;51.60
17208;DHT22;8720;48.488;9.202;2024-02-16T09:07:22;13.80;51.20
17208;DHT22;8720;48.488;9.202;2024-02-16T09:09:51;14.00;51.10
17208;DHT22;8720;48.488;9.202;2024-02-16T09:12:20;14.10;50.90
17208;DHT22;8720;48.488;9.202;2024-02-16T09:14:49;14.30;50.80
17208;DHT22;8720;48.488;9.202;2024-02-16T09:17:16;14.40;50.40
17208;DHT22;8720;48.488;9.202;2024-02-16T09:19:45;14.60;50.40
17208;DHT22;8720;48.488;9.202;2024-02-16T09:22:13;14.70;50.10
17208;DHT22;8720;48.488;9.202;2024-02-16T09:24:41;14.80;49.90
17208;DHT22;8720;48.488;9.202;2024-02-16T09:27:12;14.90;49.70
17208;DHT22;8720;48.488;9.202;2024-02-16T09:29:39;15.10;49.60
17208;DHT22;8720;48.488;9.202;2024-02-16T09:32:09;15.20;49.40
17208;DHT22;8720;48.488;9.202;2024-02-16T09:34:37;15.30;49.00
17208;DHT22;8720;48.488;9.202;2024-02-16T09:37:04;15.40;49.00
17208;DHT22;8720;48.488;9.202;2024-02-16T09:39:32;15.50;48.80
17208;DHT22;8720;48.488;9.202;2024-02-16T09:42:00;15.60;48.60
17208;DHT22;8720;48.488;9.202;2024-02-16T09:44:28;15.70;48.30
17208;DHT22;8720;48.488;9.202;2024-02-16T09:46:57;15.80;48.00
17208;DHT22;8720;48.488;9.202;2024-02-16T09:49:31;16.00;48.10
17208;DHT22;8720;48.488;9.202;2024-02-16T09:52:00;16.00;47.30
17208;DHT22;8720;48.488;9.202;2024-02-16T09:54:32;16.10;47.00
17208;DHT22;8720;48.488;9.202;2024-02-16T09:57:00;16.30;46.70
17208;DHT22;8720;48.488;9.202;2024-02-16T09:59:30;16.30;47.00
17208;DHT22;8720;48.488;9.202;2024-02-16T10:02:01;16.40;46.90
17208;DHT22;8720;48.488;9.202;2024-02-16T10:04:31;16.60;46.70
17208;DHT22;8720;48.488;9.202;2024-02-16T10:06:58;16.70;46.80
17208;DHT22;8720;48.488;9.202;2024-02-16T10:09:27;16.80;46.80
17208;DHT22;8720;48.488;9.202;2024-02-16T10:11:55;16.90;46.50
17208;DHT22;8720;48.488;9.202;2024-02-16T10:14:23;17.10;46.60
17208;DHT22;8720;48.488;9.202;2024-02-16T10:16:59;17.20;46.40
17208;DHT22;8720;48.488;9.202;2024-02-16T10:19:30;17.30;45.60
17208;DHT22;8720;48.488;9.202;2024-02-16T10:22:09;17.50;46.20
17208;DHT22;8720;48.488;9.202;2024-02-16T10:24:37;17.60;45.40
17208;DHT22;8720;48.488;9.202;2024-02-16T10:27:05;17.80;45.80
17208;DHT22;8720;48.488;9.202;2024-02-16T10:29:34;17.90;45.60
17208;DHT22;8720;48.488;9.202;2024-02-16T10:32:02;18.00;45.10
17208;DHT22;8720;48.488;9.202;2024-02-16T10:34:32;18.20;45.20
17208;DHT22;8720;48.488;9.202;2024-02-16T10:37:02;18.30;44.50
17208;DHT22;8720;48.488;9.202;2024-02-16T10:39:31;18.50;44.90
17208;DHT22;8720;48.488;9.202;2024-02-16T10:42:02;18.60;44.40
17208;DHT22;8720;48.488;9.202;2024-02-16T10:44:30;18.80;44.40
17208;DHT22;8720;48.488;9.202;2024-02-16T10:46:58;19.00;44.60
17208;DHT22;8720;48.488;9.202;2024-02-16T10:49:26;19.20;44.30
17208;DHT22;8720;48.488;9.202;2024-02-16T10:51:57;19.30;44.20
17208;DHT22;8720;48.488;9.202;2024-02-16T10:54:29;19.50;43.50
17208;DHT22;8720;48.488;9.202;2024-02-16T10:56:59;19.60;43.50
17208;DHT22;8720;48.488;9.202;2024-02-16T10:59:37;19.80;43.50
17208;DHT22;8720;48.488;9.202;2024-02-16T11:02:09;19.90;42.30
17208;DHT22;8720;48.488;9.202;2024-02-16T11:04:39;20.00;43.30
17208;DHT22;8720;48.488;9.202;2024-02-16T11:07:14;20.10;43.00
17208;DHT22;8720;48.488;9.202;2024-02-16T11:09:44;20.20;42.30
17208;DHT22;8720;48.488;9.202;2024-02-16T11:12:14;20.30;42.80
17208;DHT22;8720;48.488;9.202;2024-02-16T11:14:43;20.30;42.60
17208;DHT22;8720;48.488;9.202;2024-02-16T11:17:13;20.40;42.60
17208;DHT22;8720;48.488;9.202;2024-02-16T11:19:41;20.40;42.30
17208;DHT22;8720;48.488;9.202;2024-02-16T11:22:09;20.40;42.10
17208;DHT22;8720;48.488;9.202;2024-02-16T11:24:43;20.40;42.10
17208;DHT22;8720;48.488;9.202;2024-02-16T11:27:13;20.40;41.90
17208;DHT22;8720;48.488;9.202;2024-02-16T11:29:44;20.40;41.90
17208;DHT22;8720;48.488;9.202;2024-02-16T11:32:13;20.30;41.80
17208;DHT22;8720;48.488;9.202;2024-02-16T11:34:40;20.30;41.50
17208;DHT22;8720;48.488;9.202;2024-02-16T11:37:08;20.30;41.80
17208;DHT22;8720;48.488;9.202;2024-02-16T11:39:37;20.30;42.00
17208;DHT22;8720;48.488;9.202;2024-02-16T11:42:06;20.30;41.90
17208;DHT22;8720;48.488;9.202;2024-02-16T11:44:37;20.30;42.00
17208;DHT22;8720;48.488;9.202;2024-02-16T11:47:06;20.30;41.70
17208;DHT22;8720;48.488;9.202;2024-02-16T11:49:38;20.30;41.80
17208;DHT22;8720;48.488;9.202;2024-02-16T11:52:07;20.30;41.60
17208;DHT22;8720;48.488;9.202;2024-02-16T11:54:36;20.20;41.30
17208;DHT22;8720;48.488;9.202;2024-02-16T11:57:04;20.20;41.10
17208;DHT22;8720;48.488;9.202;2024-02-16T11:59:31;20.20;41.50
17208;DHT22;8720;48.488;9.202;2024-02-16T12:01:59;20.20;41.40
17208;DHT22;8720;48.488;9.202;2024-02-16T12:04:27;20.20;41.40
17208;DHT22;8720;48.488;9.202;2024-02-16T12:06:57;20.20;41.50
17208;DHT22;8720;48.488;9.202;2024-02-16T12:09:26;20.20;41.60
17208;DHT22;8720;48.488;9.202;2024-02-16T12:11:55;20.20;41.50
17208;DHT22;8720;48.488;9.202;2024-02-16T12:14:23;20.20;41.30
17208;DHT22;8720;48.488;9.202;2024-02-16T12:16:54;20.20;41.40
17208;DHT22;8720;48.488;9.202;2024-02-16T12:19:23;20.20;41.40
17208;DHT22;8720;48.488;9.202;2024-02-16T12:21:52;20.20;41.50
17208;DHT22;8720;48.488;9.202;2024-02-16T12:24:22;20.30;41.70
17208;DHT22;8720;48.488;9.202;2024-02-16T12:26:50;20.30;41.60
17208;DHT22;8720;48.488;9.202;2024-02-16T12:29:19;20.40;41.90
17208;DHT22;8720;48.488;9.202;2024-02-16T12:31:47;20.40;41.80
17208;DHT22;8720;48.488;9.202;2024-02-16T12:34:15;20.50;41.90
17208;DHT22;8720;48.488;9.202;2024-02-16T12:36:42;20.50;41.80
17208;DHT22;8720;48.488;9.202;2024-02-16T12:39:11;20.60;41.90
17208;DHT22;8720;48.488;9.202;2024-02-16T12:41:40;20.60;41.70
17208;DHT22;8720;48.488;9.202;2024-02-16T12:44:09;20.70;41.70
17208;DHT22;8720;48.488;9.202;2024-02-16T12:46:38;20.70;41.60
17208;DHT22;8720;48.488;9.202;2024-02-16T12:49:06;20.70;41.50
17208;DHT22;8720;48.488;9.202;2024-02-16T12:51:34;20.80;41.80
17208;DHT22;8720;48.488;9.202;2024-02-16T12:54:02;20.80;41.60
17208;DHT22;8720;48.488;9.202;2024-02-16T12:56:31;20.80;41.50
17208;DHT22;8720;48.488;9.202;2024-02-16T12:58:59;20.80;41.50
17208;DHT22;8720;48.488;9.202;2024-02-16T13:01:28;20.80;41.50
17208;DHT22;8720;48.488;9.202;2024-02-16T13:03:56;20.90;41.70
17208;DHT22;8720;48.488;9.202;2024-02-16T13:06:24;20.90;41.50
17208;DHT22;8720;48.488;9.202;2024-02-16T13:08:52;20.90;41.50
17208;DHT22;8720;48.488;9.202;2024-02-16T13:11:20;20.90;41.40
17208;DHT22;8720;48.488;9.202;2024-02-16T13:13:47;20.90;41.40
17208;DHT22;8720;48.488;9.202;2024-02-16T13:16:15;21.00;41.40
17208;DHT22;8720;48.488;9.202;2024-02-16T13:18:42;21.00;41.20
17208;DHT22;8720;48.488;9.202;2024-02-16T13:21:12;21.00;41.20
17208;DHT22;8720;48.488;9.202;2024-02-16T13:23:40;20.90;41.10
17208;DHT22;8720;48.488;9.202;2024-02-16T13:26:07;20.90;41.30
17208;DHT22;8720;48.488;9.202;2024-02-16T13:28:35;20.90;41.30
17208;DHT22;8720;48.488;9.202;2024-02-16T13:31:03;20.90;41.40
17208;DHT22;8720;48.488;9.202;2024-02-16T13:33:30;20.90;41.40
17208;DHT22;8720;48.488;9.202;2024-02-16T13:35:58;20.90;41.50
17208;DHT22;8720;48.488;9.202;2024-02-16T13:38:27;20.90;41.60
17208;DHT22;8720;48.488;9.202;2024-02-16T13:40:55;20.90;41.50
17208;DHT22;8720;48.488;9.202;2024-02-16T13:43:22;20.90;41.60
17208;DHT22;8720;48.488;9.202;2024-02-16T13:45:51;20.80;41.70
17208;DHT22;8720;48.488;9.202;2024-02-16T13:48:19;20.80;41.70
17208;DHT22;8720;48.488;9.202;2024-02-16T13:50:48;20.80;42.30
17208;DHT22;8720;48.488;9.202;2024-02-16T13:53:16;20.80;42.40
17208;DHT22;8720;48.488;9.202;2024-02-16T13:55:45;20.80;41.80
17208;DHT22;8720;48.488;9.202;2024-02-16T13:58:13;20.70;41.80
17208;DHT22;8720;48.488;9.202;2024-02-16T14:00:40;20.70;42.00
17208;DHT22;8720;48.488;9.202;2024-02-16T14:03:10;20.70;42.00
17208;DHT22;8720;48.488;9.202;2024-02-16T14:05:38;20.70;42.00
17208;DHT22;8720;48.488;9.202;2024-02-16T14:08:06;20.70;42.10
17208;DHT22;8720;48.488;9.202;2024-02-16T14:10:36;20.70;42.20
17208;DHT22;8720;48.488;9.202;2024-02-16T14:13:05;20.70;42.30
17208;DHT22;8720;48.488;9.202;2024-02-16T14:15:33;20.70;42.40
17208;DHT22;8720;48.488;9.202;2024-02-16T14:18:00;20.70;42.50
17208;DHT22;8720;48.488;9.202;2024-02-16T14:20:28;20.60;42.60
17208;DHT22;8720;48.488;9.202;2024-02-16T14:22:56;20.60;42.70
17208;DHT22;8720;48.488;9.202;2024-02-16T14:25:23;20.60;42.90
17208;DHT22;8720;48.488;9.202;2024-02-16T14:27:51;20.60;42.80
17208;DHT22;8720;48.488;9.202;2024-02-16T14:30:20;20.60;42.80
17208;DHT22;8720;48.488;9.202;2024-02-16T14:32:48;20.60;42.80
17208;DHT22;8720;48.488;9.202;2024-02-16T14:35:17;20.60;43.00
17208;DHT22;8720;48.488;9.202;2024-02-16T14:37:44;20.50;42.90
17208;DHT22;8720;48.488;9.202;2024-02-16T14:40:12;20.50;42.90
17208;DHT22;8720;48.488;9.202;2024-02-16T14:42:39;20.40;42.80
17208;DHT22;8720;48.488;9.202;2024-02-16T14:45:08;20.40;42.90
17208;DHT22;8720;48.488;9.202;2024-02-16T14:47:46;20.30;42.80
17208;DHT22;8720;48.488;9.202;2024-02-16T14:50:14;20.30;42.90
17208;DHT22;8720;48.488;9.202;2024-02-16T14:52:42;20.20;42.90
17208;DHT22;8720;48.488;9.202;2024-02-16T14:55:11;20.20;43.00
17208;DHT22;8720;48.488;9.202;2024-02-16T14:57:39;20.10;43.00
17208;DHT22;8720;48.488;9.202;2024-02-16T15:00:08;20.00;43.00
17208;DHT22;8720;48.488;9.202;2024-02-16T15:02:37;20.00;43.00
17208;DHT22;8720;48.488;9.202;2024-02-16T15:05:08;20.00;43.20
17208;DHT22;8720;48.488;9.202;2024-02-16T15:07:36;19.90;43.20
17208;DHT22;8720;48.488;9.202;2024-02-16T15:10:05;19.90;43.20
17208;DHT22;8720;48.488;9.202;2024-02-16T15:12:33;19.90;43.40
17208;DHT22;8720;48.488;9.202;2024-02-16T15:15:00;19.80;43.40
17208;DHT22;8720;48.488;9.202;2024-02-16T15:17:27;19.80;43.40
17208;DHT22;8720;48.488;9.202;2024-02-16T15:19:55;19.70;43.50
17208;DHT22;8720;48.488;9.202;2024-02-16T15:22:24;19.70;43.50
17208;DHT22;8720;48.488;9.202;2024-02-16T15:24:53;19.70;43.50
17208;DHT22;8720;48.488;9.202;2024-02-16T15:27:21;19.60;43.60
17208;DHT22;8720;48.488;9.202;2024-02-16T15:29:49;19.60;43.60
17208;DHT22;8720;48.488;9.202;2024-02-16T15:32:16;19.50;43.60
17208;DHT22;8720;48.488;9.202;2024-02-16T15:34:44;19.50;43.70
17208;DHT22;8720;48.488;9.202;2024-02-16T15:37:15;19.50;43.70
17208;DHT22;8720;48.488;9.202;2024-02-16T15:39:45;19.50;43.80
17208;DHT22;8720;48.488;9.202;2024-02-16T15:42:12;19.40;43.80
17208;DHT22;8720;48.488;9.202;2024-02-16T15:44:40;19.40;43.90
17208;DHT22;8720;48.488;9.202;2024-02-16T15:47:08;19.30;43.90
17208;DHT22;8720;48.488;9.202;2024-02-16T15:49:37;19.30;43.90
17208;DHT22;8720;48.488;9.202;2024-02-16T15:52:08;19.30;44.10
17208;DHT22;8720;48.488;9.202;2024-02-16T15:54:35;19.30;44.20